createdAt,value
2022-10-12T00:01:05.611Z,13.21
2022-10-12T00:03:33.841Z,13.06
2022-10-12T00:06:05.377Z,12.97
2022-10-12T00:08:34.882Z,13.04
2022-10-12T00:11:03.305Z,13.13
2022-10-12T00:13:31.898Z,13.21
2022-10-12T00:16:06.149Z,13.08
2022-10-12T00:18:35.583Z,13.14
2022-10-12T00:21:05.290Z,13.08
2022-10-12T00:23:35.131Z,12.95
2022-10-12T00:26:05.381Z,12.91
2022-10-12T00:28:34.707Z,12.74
2022-10-12T00:31:08.419Z,12.60
2022-10-12T00:33:37.671Z,12.29
2022-10-12T00:36:15.344Z,12.04
2022-10-12T00:38:43.964Z,11.87
2022-10-12T00:41:13.724Z,11.83
2022-10-12T00:43:47.755Z,11.67
2022-10-12T00:46:21.318Z,10.89
2022-10-12T00:48:54.480Z,11.57
2022-10-12T00:51:23.994Z,11.55
2022-10-12T00:53:57.534Z,11.58
2022-10-12T00:56:29.430Z,11.61
2022-10-12T00:59:02.992Z,11.68
2022-10-12T01:01:35.983Z,11.63
2022-10-12T01:04:04.994Z,11.74
2022-10-12T01:06:34.355Z,11.92
2022-10-12T01:09:03.660Z,12.00
2022-10-12T01:11:31.876Z,12.01
2022-10-12T01:14:00.470Z,12.11
2022-10-12T01:16:37.737Z,12.14
2022-10-12T01:19:25.387Z,12.27
2022-10-12T01:22:02.172Z,12.08
2022-10-12T01:24:47.210Z,11.93
2022-10-12T01:27:45.174Z,12.00
2022-10-12T01:30:20.371Z,12.15
2022-10-12T01:33:09.815Z,12.17
2022-10-12T01:35:45.244Z,12.08
2022-10-12T01:38:37.611Z,11.98
2022-10-12T01:41:12.110Z,11.69
2022-10-12T01:43:43.988Z,11.62
2022-10-12T01:46:42.662Z,11.74
2022-10-12T01:49:11.931Z,11.74
2022-10-12T01:52:01.599Z,11.75
2022-10-12T01:54:45.670Z,11.87
2022-10-12T01:57:20.714Z,11.99
2022-10-12T02:00:00.340Z,12.02
2022-10-12T02:02:35.941Z,11.97
2022-10-12T02:05:11.649Z,11.97
2022-10-12T02:07:45.881Z,11.98
2022-10-12T02:10:22.430Z,11.99
2022-10-12T02:12:52.615Z,12.12
2022-10-12T02:15:23.035Z,12.16
2022-10-12T02:17:53.936Z,12.20
2022-10-12T02:20:23.830Z,12.25
2022-10-12T02:22:53.264Z,12.26
2022-10-12T02:25:24.874Z,12.25
2022-10-12T02:28:01.120Z,12.32
2022-10-12T02:30:29.594Z,12.29
2022-10-12T02:33:04.793Z,12.26
2022-10-12T02:35:39.496Z,12.23
2022-10-12T02:38:14.608Z,12.20
2022-10-12T02:40:47.490Z,12.15
2022-10-12T02:43:22.490Z,12.08
2022-10-12T02:45:51.874Z,11.81
2022-10-12T02:48:24.171Z,11.90
2022-10-12T02:50:57.044Z,11.99
2022-10-12T02:53:27.155Z,11.92
2022-10-12T02:56:02.730Z,12.04
2022-10-12T02:58:30.963Z,12.05
2022-10-12T03:00:59.379Z,12.01
2022-10-12T03:03:29.131Z,11.99
2022-10-12T03:05:57.354Z,12.03
2022-10-12T03:08:25.627Z,12.07
2022-10-12T03:10:54.139Z,11.99
2022-10-12T03:13:22.363Z,12.06
2022-10-12T03:15:50.561Z,12.04
2022-10-12T03:18:19.045Z,11.86
2022-10-12T03:20:50.638Z,11.97
2022-10-12T03:23:18.870Z,11.76
2022-10-12T03:25:47.086Z,11.78
2022-10-12T03:28:15.482Z,11.63
2022-10-12T03:30:44.353Z,11.43
2022-10-12T03:33:12.894Z,11.38
2022-10-12T03:35:41.528Z,11.35
2022-10-12T03:38:11.163Z,11.24
2022-10-12T03:40:39.460Z,11.27
2022-10-12T03:43:07.934Z,11.24
2022-10-12T03:45:36.733Z,11.22
2022-10-12T03:48:06.023Z,11.37
2022-10-12T03:50:35.818Z,11.33
2022-10-12T03:53:05.928Z,11.45
2022-10-12T03:55:35.548Z,11.52
2022-10-12T03:58:03.820Z,11.32
2022-10-12T04:00:32.195Z,11.26
2022-10-12T04:03:02.111Z,11.32
2022-10-12T04:05:30.591Z,11.45
2022-10-12T04:07:59.020Z,11.54
2022-10-12T04:10:27.578Z,11.63
2022-10-12T04:12:58.849Z,11.67
2022-10-12T04:15:27.031Z,11.53
2022-10-12T04:17:55.466Z,11.59
2022-10-12T04:20:23.658Z,11.65
2022-10-12T04:22:51.854Z,11.73
2022-10-12T04:25:20.109Z,11.73
2022-10-12T04:27:48.295Z,11.64
2022-10-12T04:30:18.674Z,11.80
2022-10-12T04:32:46.956Z,11.75
2022-10-12T04:35:15.334Z,11.73
2022-10-12T04:37:43.637Z,11.62
2022-10-12T04:40:12.384Z,11.59
2022-10-12T04:42:40.603Z,11.64
2022-10-12T04:45:10.214Z,11.75
2022-10-12T04:47:40.179Z,11.91
2022-10-12T04:50:09.710Z,11.92
2022-10-12T04:52:37.881Z,12.00
2022-10-12T04:55:07.769Z,12.03
2022-10-12T04:57:36.238Z,12.02
2022-10-12T05:00:05.733Z,11.99
2022-10-12T05:02:34.277Z,11.92
2022-10-12T05:05:03.861Z,11.98
2022-10-12T05:07:32.135Z,11.93
2022-10-12T05:10:00.312Z,11.88
2022-10-12T05:12:28.695Z,11.85
2022-10-12T05:14:56.896Z,11.71
2022-10-12T05:17:25.139Z,11.64
2022-10-12T05:19:53.395Z,11.56
2022-10-12T05:22:22.957Z,11.57
2022-10-12T05:24:53.836Z,11.53
2022-10-12T05:27:22.385Z,11.61
2022-10-12T05:29:50.622Z,11.44
2022-10-12T05:32:18.852Z,11.39
2022-10-12T05:34:47.045Z,11.44
2022-10-12T05:37:15.565Z,11.41
2022-10-12T05:39:45.902Z,11.52
2022-10-12T05:42:14.230Z,11.49
2022-10-12T05:44:42.403Z,11.55
2022-10-12T05:47:10.841Z,11.54
2022-10-12T05:49:39.075Z,11.66
2022-10-12T05:52:07.358Z,11.68
2022-10-12T05:54:35.560Z,11.75
2022-10-12T05:57:05.294Z,11.84
2022-10-12T05:59:33.608Z,11.94
2022-10-12T06:02:01.999Z,11.97
2022-10-12T06:04:30.251Z,11.99
2022-10-12T06:06:58.417Z,11.94
2022-10-12T06:09:26.695Z,11.86
2022-10-12T06:11:55.505Z,11.76
2022-10-12T06:14:25.180Z,11.72
2022-10-12T06:16:54.569Z,11.76
2022-10-12T06:19:23.117Z,11.75
2022-10-12T06:21:51.364Z,11.74
2022-10-12T06:24:19.731Z,11.55
2022-10-12T06:26:47.942Z,11.58
2022-10-12T06:29:16.260Z,11.50
2022-10-12T06:31:50.610Z,11.52
2022-10-12T06:34:20.078Z,11.50
2022-10-12T06:36:48.380Z,11.52
2022-10-12T06:39:16.736Z,11.46
2022-10-12T06:41:45.032Z,11.42
2022-10-12T06:44:13.303Z,11.55
2022-10-12T06:46:41.513Z,11.61
2022-10-12T06:49:11.758Z,11.64
2022-10-12T06:51:40.016Z,11.60
2022-10-12T06:54:08.237Z,11.65
2022-10-12T06:56:38.221Z,11.71
2022-10-12T06:59:06.611Z,11.87
2022-10-12T07:01:34.953Z,12.00
2022-10-12T07:04:03.230Z,12.03
2022-10-12T07:06:34.001Z,12.10
2022-10-12T07:09:02.229Z,12.06
2022-10-12T07:11:30.467Z,12.15
2022-10-12T07:13:59.151Z,12.43
2022-10-12T07:16:27.418Z,12.55
2022-10-12T07:18:55.728Z,12.72
2022-10-12T07:21:23.976Z,12.82
2022-10-12T07:23:54.165Z,12.87
2022-10-12T07:26:22.384Z,13.13
2022-10-12T07:28:50.691Z,13.58
2022-10-12T07:31:19.303Z,13.95
2022-10-12T07:33:47.615Z,14.40
2022-10-12T07:36:20.898Z,14.72
2022-10-12T07:38:50.264Z,15.08
2022-10-12T07:41:20.611Z,15.43
2022-10-12T07:43:48.931Z,15.90
2022-10-12T07:46:17.140Z,16.11
2022-10-12T07:48:50.074Z,16.52
2022-10-12T07:51:19.306Z,16.75
2022-10-12T07:53:47.608Z,17.24
2022-10-12T07:56:16.277Z,17.62
2022-10-12T07:58:50.526Z,17.95
2022-10-12T08:01:20.259Z,18.15
2022-10-12T08:03:49.399Z,18.22
2022-10-12T08:06:20.889Z,17.93
2022-10-12T08:08:49.639Z,17.72
2022-10-12T08:11:19.189Z,17.69
2022-10-12T08:13:49.200Z,17.71
2022-10-12T08:16:20.392Z,18.00
2022-10-12T08:18:49.046Z,17.86
2022-10-12T08:21:19.067Z,17.80
2022-10-12T08:23:47.987Z,17.42
2022-10-12T08:26:16.938Z,16.81
2022-10-12T08:28:45.435Z,17.59
2022-10-12T08:31:17.579Z,17.91
2022-10-12T08:33:46.165Z,18.12
2022-10-12T08:36:15.161Z,17.97
2022-10-12T08:38:45.417Z,17.52
2022-10-12T08:41:29.420Z,17.22
2022-10-12T08:44:12.861Z,16.23
2022-10-12T08:46:42.524Z,15.41
2022-10-12T08:49:16.466Z,15.28
2022-10-12T08:51:50.217Z,15.41
2022-10-12T08:54:22.385Z,15.69
2022-10-12T08:56:54.292Z,16.02
2022-10-12T08:59:23.081Z,16.42
2022-10-12T09:02:03.498Z,17.45
2022-10-12T09:04:48.725Z,18.12
2022-10-12T09:07:22.074Z,18.56
2022-10-12T09:10:07.373Z,18.33
2022-10-12T09:12:50.798Z,18.98
2022-10-12T09:15:26.020Z,19.11
2022-10-12T09:17:57.522Z,19.02
2022-10-12T09:20:30.904Z,19.55
2022-10-12T09:23:22.243Z,19.94
2022-10-12T09:25:51.276Z,20.33
2022-10-12T09:28:28.103Z,20.29
2022-10-12T09:31:11.137Z,20.19
2022-10-12T09:33:46.103Z,20.30
2022-10-12T09:36:21.283Z,20.01
2022-10-12T09:38:51.081Z,20.17
2022-10-12T09:41:23.961Z,20.39
2022-10-12T09:43:56.332Z,20.49
2022-10-12T09:46:40.748Z,20.52
2022-10-12T09:49:10.422Z,19.72
2022-10-12T09:51:38.759Z,19.24
2022-10-12T09:54:08.127Z,19.21
2022-10-12T09:56:45.339Z,19.53
2022-10-12T09:59:30.501Z,18.30
2022-10-12T10:02:05.824Z,17.49
2022-10-12T10:04:35.800Z,17.08
2022-10-12T10:07:25.734Z,16.84
2022-10-12T10:10:16.726Z,16.65
2022-10-12T10:12:51.536Z,16.34
2022-10-12T10:15:24.794Z,16.35
2022-10-12T10:17:56.215Z,16.48
2022-10-12T10:20:32.136Z,16.31
2022-10-12T10:23:01.708Z,16.08
2022-10-12T10:25:30.206Z,16.39
2022-10-12T10:28:21.180Z,16.57
2022-10-12T10:31:00.543Z,16.22
2022-10-12T10:33:28.878Z,16.21
2022-10-12T10:36:04.554Z,16.30
2022-10-12T10:38:49.833Z,16.42
2022-10-12T10:41:19.918Z,16.56
2022-10-12T10:43:50.376Z,16.83
2022-10-12T10:46:25.310Z,16.88
2022-10-12T10:48:58.605Z,16.94
2022-10-12T10:51:49.331Z,16.72
2022-10-12T10:54:28.039Z,16.67
2022-10-12T10:57:05.167Z,16.67
2022-10-12T10:59:49.126Z,16.34
2022-10-12T11:02:33.128Z,16.07
2022-10-12T11:05:10.937Z,16.47
2022-10-12T11:07:49.567Z,16.27
2022-10-12T11:10:25.504Z,16.23
2022-10-12T11:13:01.042Z,16.17
2022-10-12T11:15:36.151Z,16.28
2022-10-12T11:18:15.030Z,16.51
2022-10-12T11:20:54.433Z,16.31
2022-10-12T11:23:34.949Z,16.27
2022-10-12T11:26:13.487Z,16.38
2022-10-12T11:28:42.585Z,15.89
2022-10-12T11:31:21.200Z,16.37
2022-10-12T11:33:51.341Z,16.39
2022-10-12T11:36:22.727Z,16.27
2022-10-12T11:38:57.558Z,16.57
2022-10-12T11:41:35.744Z,16.67
2022-10-12T11:44:14.851Z,16.81
2022-10-12T11:46:48.302Z,16.83
2022-10-12T11:49:25.779Z,16.58
2022-10-12T11:51:58.531Z,16.54
2022-10-12T11:54:33.703Z,16.52
2022-10-12T11:57:08.837Z,16.25
2022-10-12T11:59:44.660Z,16.23
2022-10-12T12:02:20.145Z,16.01
2022-10-12T12:04:50.351Z,16.10
2022-10-12T12:07:56.610Z,16.33
2022-10-12T12:11:07.423Z,16.21
2022-10-12T12:13:35.751Z,16.35
2022-10-12T12:16:32.022Z,16.28
2022-10-12T12:19:39.847Z,16.19
2022-10-12T12:22:28.703Z,16.34
2022-10-12T12:25:18.383Z,16.57
2022-10-12T12:27:51.156Z,16.82
2022-10-12T12:30:35.208Z,17.08
2022-10-12T12:33:08.167Z,17.22
2022-10-12T12:35:40.087Z,17.39
2022-10-12T12:38:28.187Z,17.51
2022-10-12T12:41:04.391Z,17.58
2022-10-12T12:43:58.882Z,17.72
2022-10-12T12:50:30.464Z,17.96
2022-10-12T12:53:07.290Z,18.02
2022-10-12T12:56:01.213Z,18.11
2022-10-12T12:59:05.344Z,18.13
2022-10-12T13:02:03.058Z,18.13
2022-10-12T13:05:14.610Z,18.26
2022-10-12T13:08:04.250Z,18.26
2022-10-12T13:10:48.378Z,18.43
2022-10-12T13:13:38.989Z,18.48
2022-10-12T13:16:36.547Z,18.55
2022-10-12T13:19:11.267Z,18.61
2022-10-12T13:21:41.984Z,18.64
2022-10-12T13:24:16.649Z,18.54
2022-10-12T13:26:49.388Z,18.42
2022-10-12T13:29:24.721Z,18.34
2022-10-12T13:31:59.880Z,18.37
2022-10-12T13:34:32.629Z,18.40
2022-10-12T13:37:03.323Z,18.40
2022-10-12T13:39:36.389Z,18.30
2022-10-12T13:42:07.308Z,18.22
2022-10-12T13:44:37.621Z,18.11
2022-10-12T13:47:24.620Z,17.96
2022-10-12T13:49:53.771Z,17.99
2022-10-12T13:52:31.711Z,18.08
2022-10-12T13:55:01.310Z,18.10
2022-10-12T13:57:36.303Z,18.13
2022-10-12T14:00:18.404Z,17.94
2022-10-12T14:02:58.690Z,17.82
2022-10-12T14:05:30.751Z,17.90
2022-10-12T14:08:04.303Z,18.02
2022-10-12T14:10:36.620Z,18.06
2022-10-12T14:13:06.194Z,18.11
2022-10-12T14:15:37.137Z,18.20
2022-10-12T14:18:36.159Z,18.33
2022-10-12T14:21:22.399Z,18.42
2022-10-12T14:23:54.470Z,18.52
2022-10-12T14:26:30.397Z,18.49
2022-10-12T14:29:00.739Z,18.60
2022-10-12T14:31:52.330Z,18.69
2022-10-12T14:34:43.880Z,18.66
2022-10-12T14:37:32.106Z,18.65
2022-10-12T14:40:00.858Z,18.68
2022-10-12T14:42:34.466Z,18.60
2022-10-12T14:45:06.123Z,18.58
2022-10-12T14:47:39.222Z,18.52
2022-10-12T14:50:10.800Z,18.50
2022-10-12T14:52:45.880Z,18.43
2022-10-12T14:55:18.039Z,18.40
2022-10-12T14:57:47.393Z,18.42
2022-10-12T15:00:17.173Z,18.31
2022-10-12T15:02:45.833Z,18.31
2022-10-12T15:05:18.428Z,18.33
2022-10-12T15:07:46.952Z,18.30
2022-10-12T15:10:16.039Z,18.33
2022-10-12T15:12:44.797Z,18.28
2022-10-12T15:15:29.201Z,18.37
2022-10-12T15:17:57.910Z,18.39
2022-10-12T15:20:29.616Z,18.37
2022-10-12T15:22:58.270Z,18.37
2022-10-12T15:25:33.854Z,18.43
2022-10-12T15:28:02.215Z,18.35
2022-10-12T15:30:30.571Z,18.25
2022-10-12T15:32:58.869Z,18.25
2022-10-12T15:35:32.910Z,18.28
2022-10-12T15:38:01.265Z,18.39
2022-10-12T15:40:31.171Z,18.42
2022-10-12T15:42:59.600Z,18.43
2022-10-12T15:45:32.723Z,18.47
2022-10-12T15:48:01.166Z,18.47
2022-10-12T15:50:38.801Z,18.47
2022-10-12T15:53:10.154Z,18.39
2022-10-12T15:55:38.502Z,18.35
2022-10-12T15:58:06.719Z,18.32
2022-10-12T16:00:35.024Z,18.33
2022-10-12T16:03:03.511Z,18.27
2022-10-12T16:05:35.559Z,18.23
2022-10-12T16:08:05.773Z,18.17
2022-10-12T16:10:37.784Z,18.13
2022-10-12T16:13:07.900Z,18.12
2022-10-12T16:15:37.404Z,18.07
2022-10-12T16:18:06.944Z,18.08
2022-10-12T16:20:39.275Z,17.98
2022-10-12T16:23:10.485Z,17.91
2022-10-12T16:25:38.709Z,17.92
2022-10-12T16:28:07.423Z,17.88
2022-10-12T16:30:35.653Z,17.85
2022-10-12T16:33:04.028Z,17.84
2022-10-12T16:35:32.315Z,17.79
2022-10-12T16:38:02.020Z,17.81
2022-10-12T16:40:30.707Z,17.81
2022-10-12T16:42:58.904Z,17.76
2022-10-12T16:45:27.243Z,17.70
2022-10-12T16:47:55.523Z,17.75
2022-10-12T16:50:25.397Z,17.65
2022-10-12T16:52:54.190Z,17.57
2022-10-12T16:55:23.867Z,17.42
2022-10-12T16:57:52.166Z,17.40
2022-10-12T17:00:22.356Z,17.37
2022-10-12T17:02:52.064Z,17.36
2022-10-12T17:05:23.812Z,17.38
2022-10-12T17:07:52.137Z,17.35
2022-10-12T17:10:20.536Z,17.31
2022-10-12T17:12:50.091Z,16.72
2022-10-12T17:15:18.789Z,17.28
2022-10-12T17:17:47.059Z,17.32
2022-10-12T17:20:15.376Z,17.27
2022-10-12T17:22:43.627Z,17.31
2022-10-12T17:25:11.951Z,17.26
2022-10-12T17:27:40.222Z,17.27
2022-10-12T17:30:11.776Z,17.27
2022-10-12T17:32:41.614Z,17.26
2022-10-12T17:35:10.815Z,17.25
2022-10-12T17:37:39.126Z,17.22
2022-10-12T17:40:11.807Z,17.13
2022-10-12T17:42:40.105Z,17.06
2022-10-12T17:45:11.110Z,17.06
2022-10-12T17:47:39.856Z,16.82
2022-10-12T17:50:09.625Z,16.67
2022-10-12T17:52:40.634Z,16.66
2022-10-12T17:55:29.493Z,16.60
2022-10-12T17:57:57.984Z,16.47
2022-10-12T18:00:28.164Z,16.25
2022-10-12T18:02:56.647Z,16.06
2022-10-12T18:05:25.154Z,16.03
2022-10-12T18:07:53.611Z,15.94
2022-10-12T18:10:23.572Z,15.94
2022-10-12T18:12:54.566Z,15.93
2022-10-12T18:15:23.277Z,15.89
2022-10-12T18:17:54.575Z,15.86
2022-10-12T18:20:22.819Z,15.78
2022-10-12T18:22:51.037Z,15.76
2022-10-12T18:25:19.605Z,15.75
2022-10-12T18:27:50.146Z,15.77
2022-10-12T18:30:18.777Z,15.75
2022-10-12T18:32:47.078Z,15.69
2022-10-12T18:35:16.880Z,15.78
2022-10-12T18:37:45.362Z,15.80
2022-10-12T18:40:14.209Z,15.65
2022-10-12T18:42:42.550Z,15.65
2022-10-12T18:45:11.864Z,15.69
2022-10-12T18:47:40.998Z,15.65
2022-10-12T18:50:10.700Z,15.63
2022-10-12T18:52:40.306Z,15.67
2022-10-12T18:55:09.618Z,15.62
2022-10-12T18:57:40.114Z,15.61
2022-10-12T19:00:11.004Z,15.58
2022-10-12T19:02:39.432Z,15.46
2022-10-12T19:05:08.401Z,15.43
2022-10-12T19:07:36.881Z,15.40
2022-10-12T19:10:08.806Z,15.38
2022-10-12T19:12:37.163Z,15.41
2022-10-12T19:15:06.450Z,15.38
2022-10-12T19:17:34.878Z,15.36
2022-10-12T19:20:03.590Z,15.33
2022-10-12T19:22:32.024Z,15.24
2022-10-12T19:25:00.294Z,15.23
2022-10-12T19:27:30.112Z,15.25
2022-10-12T19:29:58.415Z,15.38
2022-10-12T19:32:26.762Z,15.43
2022-10-12T19:34:55.149Z,15.46
2022-10-12T19:37:23.331Z,15.44
2022-10-12T19:39:51.891Z,15.43
2022-10-12T19:42:20.580Z,15.32
2022-10-12T19:44:50.473Z,15.23
2022-10-12T19:47:18.727Z,15.26
2022-10-12T19:49:47.278Z,15.30
2022-10-12T19:52:15.764Z,15.27
2022-10-12T19:54:44.492Z,15.23
2022-10-12T19:57:12.898Z,15.15
2022-10-12T19:59:41.165Z,15.22
2022-10-12T20:02:12.308Z,15.25
2022-10-12T20:04:40.764Z,15.23
2022-10-12T20:07:09.012Z,15.25
2022-10-12T20:09:37.313Z,15.27
2022-10-12T20:12:05.630Z,15.36
2022-10-12T20:14:34.069Z,15.27
2022-10-12T20:17:02.394Z,15.19
2022-10-12T20:19:31.999Z,15.20
2022-10-12T20:22:00.268Z,15.19
2022-10-12T20:24:28.575Z,15.26
2022-10-12T20:26:56.863Z,15.30
2022-10-12T20:29:25.199Z,15.32
2022-10-12T20:31:53.602Z,15.17
2022-10-12T20:34:21.907Z,15.23
2022-10-12T20:36:51.695Z,15.17
2022-10-12T20:39:20.480Z,15.21
2022-10-12T20:41:48.663Z,15.30
2022-10-12T20:44:16.892Z,15.32
2022-10-12T20:46:56.314Z,15.33
2022-10-12T20:49:24.566Z,15.34
2022-10-12T20:51:54.184Z,15.34
2022-10-12T20:54:23.238Z,15.34
2022-10-12T20:56:52.067Z,15.35
2022-10-12T20:59:20.500Z,15.30
2022-10-12T21:01:49.029Z,15.13
2022-10-12T21:04:17.432Z,15.17
2022-10-12T21:06:45.657Z,15.03
2022-10-12T21:09:17.467Z,15.06
2022-10-12T21:11:45.701Z,15.03
2022-10-12T21:14:14.954Z,14.91
2022-10-12T21:16:43.326Z,15.04
2022-10-12T21:19:16.157Z,15.03
2022-10-12T21:21:44.537Z,14.92
2022-10-12T21:24:12.777Z,14.83
2022-10-12T21:26:43.241Z,14.79
2022-10-12T21:29:11.799Z,14.74
2022-10-12T21:31:40.125Z,14.64
2022-10-12T21:34:11.145Z,14.52
2022-10-12T21:36:39.818Z,14.69
2022-10-12T21:39:12.533Z,14.62
2022-10-12T21:41:42.754Z,14.61
2022-10-12T21:44:12.091Z,14.61
2022-10-12T21:46:40.834Z,14.50
2022-10-12T21:49:09.140Z,14.62
2022-10-12T21:51:38.516Z,14.69
2022-10-12T21:54:08.194Z,14.69
2022-10-12T21:56:38.157Z,14.72
2022-10-12T21:59:08.273Z,14.73
2022-10-12T22:01:39.200Z,14.71
2022-10-12T22:04:11.699Z,14.80
2022-10-12T22:06:40.410Z,14.87
2022-10-12T22:09:13.004Z,15.02
2022-10-12T22:11:42.448Z,15.06
2022-10-12T22:14:17.690Z,15.09
2022-10-12T22:16:46.085Z,15.19
2022-10-12T22:19:18.782Z,15.18
2022-10-12T22:21:48.403Z,15.35
2022-10-12T22:24:16.891Z,15.43
2022-10-12T22:26:45.710Z,15.43
2022-10-12T22:29:15.419Z,15.47
2022-10-12T22:31:44.543Z,15.60
2022-10-12T22:34:14.502Z,15.67
2022-10-12T22:36:44.088Z,15.68
2022-10-12T22:39:12.319Z,15.66
2022-10-12T22:41:42.289Z,15.51
2022-10-12T22:44:10.625Z,15.50
2022-10-12T22:46:40.189Z,15.58
2022-10-12T22:49:08.471Z,15.53
2022-10-12T22:51:40.037Z,15.51
2022-10-12T22:54:08.899Z,15.47
2022-10-12T22:56:40.794Z,15.43
2022-10-12T22:59:11.419Z,15.54
2022-10-12T23:01:41.065Z,15.61
2022-10-12T23:04:09.401Z,15.68
2022-10-12T23:06:37.639Z,15.71
2022-10-12T23:09:06.304Z,15.74
2022-10-12T23:11:34.557Z,15.81
2022-10-12T23:14:03.053Z,15.69
2022-10-12T23:16:33.961Z,15.69
2022-10-12T23:19:06.696Z,15.80
2022-10-12T23:21:35.891Z,15.82
2022-10-12T23:24:05.857Z,15.61
2022-10-12T23:26:34.655Z,15.90
2022-10-12T23:29:03.324Z,15.90
2022-10-12T23:31:32.243Z,15.90
2022-10-12T23:34:05.304Z,15.93
2022-10-12T23:36:35.461Z,15.86
2022-10-12T23:39:06.310Z,15.89
2022-10-12T23:41:34.557Z,15.84
2022-10-12T23:44:02.754Z,15.91
2022-10-12T23:46:31.142Z,15.96
2022-10-12T23:49:00.481Z,15.93
2022-10-12T23:51:30.058Z,15.88
2022-10-12T23:53:58.436Z,15.99
2022-10-12T23:56:26.942Z,16.04
2022-10-12T23:58:55.211Z,16.04
